createdAt,value
2022-09-09T00:01:25.458Z,9.63
2022-09-09T00:04:07.268Z,9.23
2022-09-09T00:06:46.126Z,9.25
2022-09-09T00:09:18.818Z,9.15
2022-09-09T00:11:57.460Z,10.80
2022-09-09T00:14:25.196Z,9.20
2022-09-09T00:16:58.843Z,8.60
2022-09-09T00:19:32.447Z,7.55
2022-09-09T00:22:21.762Z,7.47
2022-09-09T00:25:00.545Z,7.35
2022-09-09T00:27:39.896Z,8.10
2022-09-09T00:30:24.851Z,6.82
2022-09-09T00:33:01.177Z,7.22
2022-09-09T00:35:35.019Z,7.03
2022-09-09T00:38:12.877Z,7.30
2022-09-09T00:41:03.122Z,6.90
2022-09-09T00:43:33.831Z,7.18
2022-09-09T00:46:13.812Z,6.57
2022-09-09T00:49:05.386Z,7.07
2022-09-09T00:51:58.372Z,7.28
2022-09-09T00:54:31.751Z,6.60
2022-09-09T00:57:25.403Z,7.63
2022-09-09T00:59:59.555Z,5.97
2022-09-09T01:02:40.762Z,6.10
2022-09-09T01:05:20.444Z,6.15
2022-09-09T01:07:52.990Z,6.85
2022-09-09T01:10:42.822Z,5.85
2022-09-09T01:13:20.243Z,6.50
2022-09-09T01:15:49.587Z,6.32
2022-09-09T01:18:22.888Z,6.28
2022-09-09T01:21:05.226Z,6.22
2022-09-09T01:24:02.276Z,6.30
2022-09-09T01:26:40.698Z,6.30
2022-09-09T01:29:18.481Z,6.85
2022-09-09T01:31:58.790Z,6.15
2022-09-09T01:34:32.354Z,7.13
2022-09-09T01:37:06.887Z,6.22
2022-09-09T01:39:37.302Z,5.93
2022-09-09T01:42:13.346Z,6.30
2022-09-09T01:44:42.048Z,6.03
2022-09-09T01:47:10.403Z,6.30
2022-09-09T01:49:53.395Z,6.00
2022-09-09T01:52:25.372Z,6.80
2022-09-09T01:54:53.201Z,6.93
2022-09-09T01:57:28.396Z,7.07
2022-09-09T02:00:13.013Z,8.50
2022-09-09T02:02:54.572Z,7.75
2022-09-09T02:05:41.462Z,9.27
2022-09-09T02:08:58.552Z,7.95
2022-09-09T02:11:30.024Z,9.07
2022-09-09T02:14:19.240Z,8.82
2022-09-09T02:16:56.093Z,10.02
2022-09-09T02:19:33.168Z,10.80
2022-09-09T02:22:10.372Z,9.65
2022-09-09T02:24:40.945Z,10.38
2022-09-09T02:27:20.415Z,9.80
2022-09-09T02:29:49.423Z,10.48
2022-09-09T02:32:23.533Z,9.95
2022-09-09T02:35:17.337Z,9.98
2022-09-09T02:37:49.556Z,9.30
2022-09-09T02:40:18.338Z,9.88
2022-09-09T02:42:50.787Z,9.27
2022-09-09T02:45:26.057Z,8.75
2022-09-09T02:48:19.340Z,8.70
2022-09-09T02:51:01.790Z,8.73
2022-09-09T02:53:52.247Z,8.68
2022-09-09T02:56:23.201Z,9.25
2022-09-09T02:58:52.931Z,9.60
2022-09-09T03:01:21.970Z,9.07
2022-09-09T03:03:49.736Z,8.95
2022-09-09T03:06:18.511Z,9.35
2022-09-09T03:08:51.056Z,9.57
2022-09-09T03:11:24.215Z,8.63
2022-09-09T03:13:52.674Z,8.73
2022-09-09T03:16:24.750Z,7.97
2022-09-09T03:18:54.620Z,8.02
2022-09-09T03:21:22.427Z,8.18
2022-09-09T03:23:50.769Z,8.50
2022-09-09T03:26:18.386Z,7.93
2022-09-09T03:28:47.632Z,8.77
2022-09-09T03:31:20.491Z,8.57
2022-09-09T03:33:49.040Z,9.57
2022-09-09T03:38:45.422Z,9.93
2022-09-09T03:41:14.103Z,10.02
2022-09-09T03:43:42.954Z,12.35
2022-09-09T03:46:10.936Z,13.18
2022-09-09T03:48:38.834Z,12.68
2022-09-09T03:51:06.703Z,12.13
2022-09-09T03:53:35.672Z,13.23
2022-09-09T03:56:04.814Z,15.60
2022-09-09T03:58:38.572Z,14.80
2022-09-09T04:01:14.881Z,13.20
2022-09-09T04:03:45.842Z,12.25
2022-09-09T04:06:15.797Z,12.40
2022-09-09T04:08:46.663Z,10.93
2022-09-09T04:11:16.577Z,10.50
2022-09-09T04:13:45.977Z,9.75
2022-09-09T04:16:15.971Z,10.63
2022-09-09T04:21:13.366Z,11.63
2022-09-09T04:23:41.624Z,12.02
2022-09-09T04:26:10.090Z,12.52
2022-09-09T04:28:38.919Z,11.63
2022-09-09T04:31:19.755Z,11.50
2022-09-09T04:33:50.472Z,11.45
2022-09-09T04:36:22.221Z,8.63
2022-09-09T04:38:51.912Z,8.88
2022-09-09T04:41:19.578Z,8.88
2022-09-09T04:43:51.284Z,9.43
2022-09-09T04:46:18.899Z,10.07
2022-09-09T04:48:50.551Z,9.95
2022-09-09T04:53:49.939Z,9.18
2022-09-09T04:56:19.437Z,9.40
2022-09-09T04:58:52.029Z,8.88
2022-09-09T05:01:25.330Z,8.63
2022-09-09T05:03:54.584Z,9.25
2022-09-09T05:06:24.753Z,9.75
2022-09-09T05:08:56.711Z,8.85
2022-09-09T05:11:29.074Z,9.98
2022-09-09T05:14:05.880Z,9.90
2022-09-09T05:16:34.531Z,9.30
2022-09-09T05:19:04.309Z,8.77
2022-09-09T05:21:43.496Z,8.93
2022-09-09T05:24:12.530Z,9.48
2022-09-09T05:26:41.096Z,10.93
2022-09-09T05:29:09.376Z,11.05
2022-09-09T05:31:37.755Z,9.52
2022-09-09T05:34:10.164Z,9.07
2022-09-09T05:36:38.698Z,8.63
2022-09-09T05:39:07.083Z,8.35
2022-09-09T05:41:37.091Z,8.27
2022-09-09T05:44:06.192Z,8.13
2022-09-09T05:46:39.128Z,9.15
2022-09-09T05:49:07.324Z,9.00
2022-09-09T05:51:35.888Z,8.45
2022-09-09T05:54:08.717Z,7.82
2022-09-09T05:56:40.564Z,8.57
2022-09-09T05:59:10.355Z,7.50
2022-09-09T06:01:43.384Z,7.30
2022-09-09T06:04:21.781Z,13.15
2022-09-09T06:06:50.586Z,8.98
2022-09-09T06:09:20.213Z,8.93
2022-09-09T06:11:47.945Z,8.45
2022-09-09T06:14:16.229Z,8.77
2022-09-09T06:16:47.753Z,7.35
2022-09-09T06:19:22.153Z,7.65
2022-09-09T06:21:51.366Z,8.60
2022-09-09T06:24:20.555Z,8.18
2022-09-09T06:26:48.115Z,7.20
2022-09-09T06:29:25.545Z,7.55
2022-09-09T06:31:54.473Z,12.50
2022-09-09T06:34:24.374Z,8.00
2022-09-09T06:36:58.807Z,8.20
2022-09-09T06:39:29.571Z,7.55
2022-09-09T06:41:58.819Z,7.05
2022-09-09T06:44:53.458Z,7.57
2022-09-09T06:47:48.548Z,7.40
2022-09-09T06:50:17.721Z,8.35
2022-09-09T06:52:48.786Z,7.53
2022-09-09T06:55:18.653Z,7.38
2022-09-09T06:57:46.983Z,7.25
2022-09-09T07:00:19.357Z,7.65
2022-09-09T07:02:47.811Z,7.80
2022-09-09T07:05:16.461Z,7.95
2022-09-09T07:07:46.219Z,6.70
2022-09-09T07:10:16.247Z,6.28
2022-09-09T07:12:52.915Z,6.40
2022-09-09T07:15:21.055Z,5.68
2022-09-09T07:17:49.507Z,5.85
2022-09-09T07:20:17.501Z,6.17
2022-09-09T07:22:45.360Z,5.72
2022-09-09T07:25:13.011Z,5.78
2022-09-09T07:27:41.751Z,5.18
2022-09-09T07:30:17.571Z,5.82
2022-09-09T07:32:48.975Z,28.77
2022-09-09T07:35:16.690Z,6.15
2022-09-09T07:37:47.786Z,5.60
2022-09-09T07:40:23.031Z,5.30
2022-09-09T07:42:51.511Z,5.18
2022-09-09T07:45:19.127Z,4.80
2022-09-09T07:47:46.806Z,5.03
2022-09-09T07:50:14.451Z,5.15
2022-09-09T07:52:42.191Z,5.22
2022-09-09T07:55:10.375Z,5.13
2022-09-09T07:57:38.633Z,4.88
2022-09-09T08:00:07.048Z,5.38
2022-09-09T08:02:40.389Z,4.97
2022-09-09T08:05:09.871Z,4.82
2022-09-09T08:07:40.255Z,5.22
2022-09-09T08:10:08.511Z,5.30
2022-09-09T08:12:42.160Z,5.35
2022-09-09T08:15:16.024Z,5.45
2022-09-09T08:17:49.367Z,5.93
2022-09-09T08:20:16.986Z,6.13
2022-09-09T08:22:44.736Z,6.00
2022-09-09T08:25:13.728Z,5.70
2022-09-09T08:27:42.660Z,5.90
2022-09-09T08:30:10.769Z,5.28
2022-09-09T08:32:39.904Z,14.38
2022-09-09T08:35:10.147Z,8.73
2022-09-09T08:37:39.615Z,4.75
2022-09-09T08:40:18.949Z,4.40
2022-09-09T08:42:51.675Z,5.55
2022-09-09T08:45:37.121Z,4.95
2022-09-09T08:48:53.990Z,4.70
2022-09-09T08:51:22.369Z,4.95
2022-09-09T08:53:57.662Z,5.30
2022-09-09T08:56:28.375Z,4.70
2022-09-09T08:59:01.843Z,5.03
2022-09-09T09:02:09.926Z,4.70
2022-09-09T09:05:31.192Z,4.55
2022-09-09T09:08:18.778Z,4.93
2022-09-09T09:10:50.781Z,4.88
2022-09-09T09:13:43.621Z,4.95
2022-09-09T09:16:29.047Z,5.10
2022-09-09T09:18:57.847Z,5.20
2022-09-09T09:21:42.240Z,5.57
2022-09-09T09:24:23.359Z,5.63
2022-09-09T09:26:52.442Z,5.00
2022-09-09T09:29:22.828Z,5.50
2022-09-09T09:32:03.111Z,5.78
2022-09-09T09:34:30.681Z,5.40
2022-09-09T09:37:02.833Z,4.90
2022-09-09T09:42:27.786Z,5.03
2022-09-09T09:45:08.208Z,5.00
2022-09-09T09:47:36.062Z,4.95
2022-09-09T09:50:20.432Z,5.00
2022-09-09T09:52:59.207Z,4.93
2022-09-09T09:55:32.200Z,5.70
2022-09-09T10:00:50.220Z,5.15
2022-09-09T10:03:41.533Z,4.50
2022-09-09T10:06:11.986Z,5.20
2022-09-09T10:08:47.752Z,5.13
2022-09-09T10:11:46.642Z,7.07
2022-09-09T10:14:23.305Z,4.50
2022-09-09T10:17:28.326Z,7.72
2022-09-09T10:20:40.653Z,4.60
2022-09-09T10:23:23.903Z,5.22
2022-09-09T10:26:12.724Z,4.82
2022-09-09T10:29:02.820Z,4.53
2022-09-09T10:31:45.530Z,4.15
2022-09-09T10:34:34.144Z,4.55
2022-09-09T10:37:26.539Z,4.27
2022-09-09T10:40:08.021Z,4.82
2022-09-09T10:42:36.861Z,4.68
2022-09-09T10:45:19.622Z,4.68
2022-09-09T10:48:05.462Z,4.97
2022-09-09T10:50:59.936Z,4.30
2022-09-09T10:53:22.080Z,10.97
2022-09-09T10:55:59.038Z,5.15
2022-09-09T10:58:35.447Z,4.43
2022-09-09T11:01:15.212Z,4.95
2022-09-09T11:06:22.350Z,4.32
2022-09-09T11:08:53.795Z,4.38
2022-09-09T11:11:35.954Z,4.75
2022-09-09T11:14:09.531Z,4.55
2022-09-09T11:16:47.250Z,5.82
2022-09-09T11:19:14.951Z,11.98
2022-09-09T11:21:47.278Z,5.57
2022-09-09T11:24:23.707Z,4.22
2022-09-09T11:26:57.746Z,4.60
2022-09-09T11:30:02.242Z,4.50
2022-09-09T11:32:56.477Z,4.60
2022-09-09T11:35:32.089Z,4.75
2022-09-09T11:38:20.856Z,19.88
2022-09-09T11:40:56.333Z,4.70
2022-09-09T11:43:34.788Z,4.30
2022-09-09T11:46:03.849Z,4.25
2022-09-09T11:48:46.717Z,4.50
2022-09-09T11:51:27.842Z,3.92
2022-09-09T11:54:02.456Z,4.88
2022-09-09T11:56:45.753Z,4.47
2022-09-09T11:59:33.089Z,4.38
2022-09-09T12:02:02.921Z,4.50
2022-09-09T12:04:31.987Z,5.00
2022-09-09T12:07:09.188Z,4.97
2022-09-09T12:09:59.182Z,5.53
2022-09-09T12:12:43.264Z,4.47
2022-09-09T12:15:13.078Z,5.25
2022-09-09T12:17:55.926Z,4.38
2022-09-09T12:20:34.681Z,4.75
2022-09-09T12:23:08.015Z,4.22
2022-09-09T12:25:51.540Z,4.30
2022-09-09T12:28:38.520Z,4.30
2022-09-09T12:31:45.548Z,4.72
2022-09-09T12:34:28.891Z,4.22
2022-09-09T12:37:04.090Z,4.40
2022-09-09T12:39:40.417Z,5.55
2022-09-09T12:42:17.976Z,5.25
2022-09-09T12:45:00.826Z,5.15
2022-09-09T12:47:44.203Z,6.88
2022-09-09T12:50:29.422Z,4.70
2022-09-09T12:53:00.405Z,4.95
2022-09-09T12:55:37.966Z,4.78
2022-09-09T12:58:07.590Z,5.25
2022-09-09T13:00:35.956Z,4.63
2022-09-09T13:03:18.011Z,4.13
2022-09-09T13:05:47.875Z,4.65
2022-09-09T13:08:21.533Z,8.10
2022-09-09T13:11:02.511Z,5.50
2022-09-09T13:13:40.975Z,5.00
2022-09-09T13:16:33.439Z,4.38
2022-09-09T13:19:17.093Z,5.35
2022-09-09T13:21:44.925Z,5.55
2022-09-09T13:24:34.127Z,5.13
2022-09-09T13:27:22.332Z,6.13
2022-09-09T13:29:57.896Z,5.72
2022-09-09T13:32:32.558Z,4.70
2022-09-09T13:35:05.039Z,4.25
2022-09-09T13:37:39.871Z,5.07
2022-09-09T13:40:18.160Z,4.65
2022-09-09T13:42:46.188Z,4.60
2022-09-09T13:45:22.435Z,4.63
2022-09-09T13:47:53.787Z,3.80
2022-09-09T13:50:25.994Z,4.13
2022-09-09T13:52:55.787Z,5.22
2022-09-09T13:55:24.976Z,4.78
2022-09-09T13:58:01.628Z,4.47
2022-09-09T14:00:35.281Z,4.60
2022-09-09T14:03:03.565Z,4.40
2022-09-09T14:05:34.950Z,4.50
2022-09-09T14:08:05.293Z,5.32
2022-09-09T14:10:38.086Z,5.45
2022-09-09T14:13:06.323Z,4.72
2022-09-09T14:15:34.096Z,4.40
2022-09-09T14:18:01.655Z,4.45
2022-09-09T14:20:29.266Z,4.30
2022-09-09T14:23:03.207Z,5.03
2022-09-09T14:25:32.619Z,4.28
2022-09-09T14:28:00.186Z,5.05
2022-09-09T14:30:27.872Z,4.38
2022-09-09T14:32:55.559Z,4.60
2022-09-09T14:35:23.337Z,3.88
2022-09-09T14:37:50.912Z,3.28
2022-09-09T14:40:19.008Z,4.10
2022-09-09T14:42:47.375Z,3.70
2022-09-09T14:45:15.021Z,3.60
2022-09-09T14:47:42.837Z,4.60
2022-09-09T14:50:11.307Z,4.80
2022-09-09T14:52:39.057Z,4.22
2022-09-09T14:55:07.455Z,3.50
2022-09-09T14:57:36.803Z,3.28
2022-09-09T15:00:06.427Z,3.75
2022-09-09T15:02:34.574Z,4.32
2022-09-09T15:05:02.513Z,3.58
2022-09-09T15:07:32.896Z,3.95
2022-09-09T15:10:00.512Z,3.70
2022-09-09T15:12:32.696Z,4.00
2022-09-09T15:15:00.387Z,3.90
2022-09-09T15:17:28.269Z,3.88
2022-09-09T15:19:56.036Z,3.75
2022-09-09T15:22:25.489Z,9.68
2022-09-09T15:24:53.217Z,4.32
2022-09-09T15:27:20.930Z,3.40
2022-09-09T15:29:48.575Z,3.65
2022-09-09T15:32:16.099Z,3.30
2022-09-09T15:34:43.735Z,3.72
2022-09-09T15:37:14.139Z,4.63
2022-09-09T15:39:42.095Z,3.53
2022-09-09T15:42:09.944Z,3.72
2022-09-09T15:44:43.584Z,3.72
2022-09-09T15:47:13.946Z,4.03
2022-09-09T15:49:41.563Z,3.33
2022-09-09T15:52:12.224Z,3.95
2022-09-09T15:54:40.227Z,3.20
2022-09-09T15:57:12.396Z,3.65
2022-09-09T15:59:41.288Z,4.47
2022-09-09T16:02:10.656Z,4.68
2022-09-09T16:04:38.687Z,5.38
2022-09-09T16:07:07.426Z,6.00
2022-09-09T16:09:36.355Z,6.05
2022-09-09T16:12:10.709Z,5.18
2022-09-09T16:14:39.729Z,5.28
2022-09-09T16:17:07.682Z,5.07
2022-09-09T16:19:35.823Z,4.38
2022-09-09T16:22:05.151Z,3.53
2022-09-09T16:24:33.614Z,3.17
2022-09-09T16:27:01.713Z,2.80
2022-09-09T16:29:29.648Z,2.95
2022-09-09T16:32:01.394Z,2.85
2022-09-09T16:34:31.422Z,3.00
2022-09-09T16:36:58.935Z,2.40
2022-09-09T16:39:26.515Z,2.75
2022-09-09T16:41:54.055Z,2.72
2022-09-09T16:44:21.641Z,2.58
2022-09-09T16:46:55.606Z,2.75
2022-09-09T16:49:28.580Z,2.95
2022-09-09T16:51:59.337Z,2.70
2022-09-09T16:54:28.350Z,3.22
2022-09-09T16:56:56.281Z,3.00
2022-09-09T16:59:24.470Z,2.95
2022-09-09T17:01:53.392Z,3.10
2022-09-09T17:04:25.281Z,3.38
2022-09-09T17:06:55.147Z,3.33
2022-09-09T17:09:24.154Z,3.05
2022-09-09T17:11:53.469Z,3.13
2022-09-09T17:14:23.034Z,3.33
2022-09-09T17:16:50.974Z,3.55
2022-09-09T17:19:19.220Z,3.28
2022-09-09T17:22:22.102Z,3.42
2022-09-09T17:24:39.550Z,3.65
2022-09-09T17:27:08.091Z,3.50
2022-09-09T17:29:37.013Z,3.28
2022-09-09T17:32:06.591Z,3.80
2022-09-09T17:34:35.595Z,3.60
2022-09-09T17:37:03.584Z,4.25
2022-09-09T17:39:31.304Z,4.05
2022-09-09T17:41:58.876Z,3.92
2022-09-09T17:44:27.360Z,4.15
2022-09-09T17:46:55.608Z,4.25
2022-09-09T17:49:23.116Z,4.05
2022-09-09T17:51:50.714Z,3.90
2022-09-09T17:54:20.216Z,4.03
2022-09-09T17:56:48.816Z,3.85
2022-09-09T17:59:17.935Z,3.53
2022-09-09T18:01:49.765Z,3.42
2022-09-09T18:04:17.916Z,3.00
2022-09-09T18:06:48.178Z,3.15
2022-09-09T18:09:18.629Z,2.80
2022-09-09T18:11:50.795Z,2.67
2022-09-09T18:14:21.958Z,2.20
2022-09-09T18:16:49.993Z,2.30
2022-09-09T18:19:20.426Z,1.88
2022-09-09T18:21:49.316Z,2.50
2022-09-09T18:24:19.965Z,2.10
2022-09-09T18:26:49.156Z,1.85
2022-09-09T18:29:20.136Z,1.90
2022-09-09T18:31:48.602Z,1.80
2022-09-09T18:34:19.138Z,1.80
2022-09-09T18:36:50.110Z,1.95
2022-09-09T18:39:19.083Z,1.58
2022-09-09T18:41:52.535Z,1.75
2022-09-09T18:44:24.038Z,1.70
2022-09-09T18:46:52.656Z,1.77
2022-09-09T18:49:22.417Z,2.67
2022-09-09T18:51:50.091Z,2.05
2022-09-09T18:54:23.709Z,1.73
2022-09-09T18:56:53.051Z,1.98
2022-09-09T18:59:23.152Z,2.13
2022-09-09T19:01:52.838Z,1.95
2022-09-09T19:06:58.015Z,1.95
2022-09-09T19:09:29.649Z,2.08
2022-09-09T19:11:58.423Z,1.80
2022-09-09T19:14:26.266Z,2.00
2022-09-09T19:16:54.116Z,2.33
2022-09-09T19:19:24.924Z,1.92
2022-09-09T19:21:52.705Z,2.00
2022-09-09T19:24:22.797Z,1.95
2022-09-09T19:26:53.299Z,2.20
2022-09-09T19:29:23.950Z,2.08
2022-09-09T19:34:41.526Z,1.77
2022-09-09T19:37:09.064Z,1.98
2022-09-09T19:39:36.627Z,2.42
2022-09-09T19:42:04.137Z,1.83
2022-09-09T19:44:31.621Z,2.25
2022-09-09T19:47:02.569Z,2.55
2022-09-09T19:49:31.275Z,2.30
2022-09-09T19:51:59.390Z,2.40
2022-09-09T19:54:27.115Z,2.10
2022-09-09T19:56:54.879Z,2.25
2022-09-09T19:59:22.846Z,2.10
2022-09-09T20:01:50.446Z,2.28
2022-09-09T20:04:18.773Z,2.13
2022-09-09T20:06:46.621Z,2.40
2022-09-09T20:09:17.715Z,2.40
2022-09-09T20:11:48.721Z,2.60
2022-09-09T20:14:17.259Z,2.55
2022-09-09T20:16:45.838Z,2.28
2022-09-09T20:19:16.276Z,3.05
2022-09-09T20:21:47.852Z,2.70
2022-09-09T20:24:21.623Z,2.60
2022-09-09T20:26:49.297Z,2.60
2022-09-09T20:29:19.385Z,2.42
2022-09-09T20:34:18.696Z,2.65
2022-09-09T20:36:47.441Z,2.40
2022-09-09T20:39:16.974Z,2.42
2022-09-09T20:41:46.386Z,2.13
2022-09-09T20:44:20.135Z,2.50
2022-09-09T20:51:58.895Z,2.20
2022-09-09T20:54:30.297Z,2.50
2022-09-09T20:56:59.867Z,2.20
2022-09-09T20:59:29.109Z,2.40
2022-09-09T21:04:26.154Z,2.15
2022-09-09T21:06:53.830Z,2.50
2022-09-09T21:09:24.505Z,2.13
2022-09-09T21:11:53.780Z,3.15
2022-09-09T21:14:22.282Z,2.33
2022-09-09T21:16:50.339Z,2.50
2022-09-09T21:19:17.853Z,2.65
2022-09-09T21:21:47.918Z,2.50
2022-09-09T21:24:15.564Z,2.22
2022-09-09T21:26:43.401Z,1.92
2022-09-09T21:29:10.932Z,2.20
2022-09-09T21:31:38.945Z,2.10
2022-09-09T21:34:07.304Z,2.17
2022-09-09T21:36:36.642Z,2.00
2022-09-09T21:39:04.354Z,2.33
2022-09-09T21:41:31.975Z,2.40
2022-09-09T21:43:59.489Z,1.92
2022-09-09T21:46:28.234Z,1.88
2022-09-09T21:48:56.655Z,1.77
2022-09-09T21:51:24.830Z,1.55
2022-09-09T21:53:55.579Z,1.40
2022-09-09T21:56:23.730Z,1.40
2022-09-09T21:58:58.883Z,1.70
2022-09-09T22:01:26.795Z,1.50
2022-09-09T22:03:54.557Z,1.50
2022-09-09T22:06:22.140Z,1.65
2022-09-09T22:08:50.371Z,1.35
2022-09-09T22:11:22.500Z,1.27
2022-09-09T22:13:52.767Z,1.38
2022-09-09T22:18:55.303Z,1.92
2022-09-09T22:21:23.864Z,1.58
2022-09-09T22:23:57.587Z,1.10
2022-09-09T22:26:27.923Z,1.27
2022-09-09T22:28:57.420Z,1.27
2022-09-09T22:31:26.687Z,7.82
2022-09-09T22:33:54.519Z,1.50
2022-09-09T22:36:22.722Z,1.50
2022-09-09T22:38:50.601Z,1.33
2022-09-09T22:41:18.999Z,1.73
2022-09-09T22:43:47.159Z,1.70
2022-09-09T22:46:14.981Z,2.10
2022-09-09T22:48:43.303Z,1.85
2022-09-09T22:51:12.846Z,1.60
2022-09-09T22:53:42.217Z,1.50
2022-09-09T22:56:17.367Z,1.30
2022-09-09T22:58:46.734Z,1.50
2022-09-09T23:01:19.801Z,5.30
2022-09-09T23:03:48.408Z,1.65
2022-09-09T23:06:24.433Z,1.70
2022-09-09T23:08:56.026Z,1.73
2022-09-09T23:11:31.708Z,10.48
2022-09-09T23:14:02.075Z,2.05
2022-09-09T23:16:33.158Z,2.63
2022-09-09T23:19:01.130Z,4.47
2022-09-09T23:21:29.817Z,1.60
2022-09-09T23:23:59.795Z,2.60
2022-09-09T23:26:29.975Z,4.10
2022-09-09T23:28:59.256Z,1.67
2022-09-09T23:31:29.908Z,2.10
2022-09-09T23:34:02.390Z,2.47
2022-09-09T23:36:31.050Z,2.55
2022-09-09T23:39:02.686Z,1.65
2022-09-09T23:41:31.371Z,1.73
2022-09-09T23:44:00.960Z,4.63
2022-09-09T23:46:30.641Z,1.83
2022-09-09T23:48:59.111Z,1.67
2022-09-09T23:51:30.779Z,1.80
2022-09-09T23:54:00.559Z,1.50
2022-09-09T23:56:32.422Z,1.67
2022-09-09T23:59:00.469Z,1.95
